.
WxDataArchive / Data Records for 2016-06-14
2016-06-13 June 2016 2016-06-15

Data Records for Tuesday, 14 June 2016

Time	Temp	Chill	HIndex	Humid	Dewpt	 Wind 	HiWind	WindDir	Rain 	Barom
-----	----	-----	------	-----	-----	------	------	-------	-----	-----
00:00	74.0	74.0	74.0	41	48.8	0	1	0	0.00	29.866 
00:05	74.0	74.0	74.0	42	49.4	0	1	0	0.00	29.866 
00:10	73.9	73.9	73.9	42	49.3	0	1	0	0.00	29.866 
00:15	73.7	73.7	73.7	42	49.2	0	1	0	0.00	29.865 
00:20	73.5	73.5	73.5	42	49.0	0	1	0	0.00	29.865 
00:25	73.2	73.2	73.2	43	49.3	0	2	0	0.00	29.865 
00:30	73.0	73.0	73.0	42	48.5	1	3	22	0.00	29.871 
00:35	73.0	73.0	73.0	43	49.2	2	4	68	0.00	29.871 
00:40	73.0	73.0	73.0	45	50.4	2	7	90	0.00	29.871 
00:45	72.7	72.7	72.7	47	51.3	3	6	90	0.00	29.881 
00:50	72.0	72.0	72.0	48	51.2	2	6	68	0.00	29.881 
00:55	71.5	71.5	71.5	50	51.9	2	5	90	0.00	29.881 
01:00	70.9	70.9	70.9	50	51.3	2	5	90	0.00	29.893 
01:05	70.3	70.3	70.3	51	51.3	3	7	90	0.00	29.893 
01:10	69.8	69.8	69.8	51	50.8	2	9	68	0.00	29.893 
01:15	69.3	69.3	69.3	51	50.4	2	7	90	0.00	29.895 
01:20	68.8	68.8	68.8	52	50.4	3	5	90	0.00	29.895 
01:25	68.4	68.4	68.4	52	50.1	2	5	68	0.00	29.895 
01:30	68.3	68.3	68.3	53	50.5	2	6	68	0.00	29.898 
01:35	68.1	68.1	68.1	54	50.8	1	3	68	0.00	29.898 
01:40	67.8	67.8	67.8	54	50.5	1	4	68	0.00	29.898 
01:45	67.4	67.4	67.4	54	50.2	2	6	90	0.00	29.904 
01:50	67.1	67.1	67.1	53	49.4	3	10	68	0.00	29.904 
01:55	66.9	66.9	66.9	54	49.7	1	4	68	0.00	29.904 
02:00	66.8	66.8	66.8	54	49.6	2	6	90	0.00	29.903 
02:05	66.4	66.4	66.4	55	49.7	2	5	90	0.00	29.903 
02:10	66.3	66.3	66.3	55	49.6	1	4	90	0.00	29.903 
02:15	66.1	66.1	66.1	56	49.9	2	5	68	0.00	29.899 
02:20	66.0	66.0	66.0	56	49.8	2	5	68	0.00	29.899 
02:25	65.8	65.8	65.8	55	49.2	3	7	90	0.00	29.899 
02:30	65.8	65.8	65.8	55	49.2	2	7	68	0.00	29.893 
02:35	65.6	65.6	65.6	54	48.5	2	6	90	0.00	29.893 
02:40	65.6	65.6	65.6	54	48.5	2	5	112	0.00	29.893 
02:45	65.5	65.5	65.5	54	48.4	2	6	90	0.00	29.894 
02:50	65.5	65.5	65.5	54	48.4	2	5	68	0.00	29.894 
02:55	65.3	65.3	65.3	54	48.2	2	6	68	0.00	29.894 
03:00	65.2	65.2	65.2	54	48.1	1	6	68	0.00	29.899 
03:05	65.2	65.2	65.2	54	48.1	1	3	68	0.00	29.899 
03:10	65.2	65.2	65.2	55	48.6	1	3	68	0.00	29.899 
03:15	65.0	65.0	65.0	55	48.4	1	3	45	0.00	29.902 
03:20	65.0	65.0	65.0	55	48.4	1	4	68	0.00	29.902 
03:25	64.8	64.8	64.8	55	48.2	1	6	68	0.00	29.902 
03:30	64.8	64.8	64.8	55	48.2	1	4	90	0.00	29.900 
03:35	64.8	64.8	64.8	55	48.2	1	4	45	0.00	29.900 
03:40	64.8	64.8	64.8	55	48.2	1	3	68	0.00	29.900 
03:45	64.8	64.8	64.8	55	48.2	1	4	45	0.00	29.896 
03:50	64.7	64.7	64.7	55	48.2	1	5	45	0.00	29.896 
03:55	64.7	64.7	64.7	55	48.2	1	3	158	0.00	29.896 
04:00	64.5	64.5	64.5	56	48.4	1	5	135	0.00	29.895 
04:05	64.5	64.5	64.5	56	48.4	1	2	68	0.00	29.895 
04:10	64.5	64.5	64.5	56	48.4	1	3	68	0.00	29.895 
04:15	64.5	64.5	64.5	56	48.4	1	3	45	0.00	29.899 
04:20	64.5	64.5	64.5	56	48.4	1	3	90	0.00	29.899 
04:25	64.5	64.5	64.5	56	48.4	1	4	90	0.00	29.899 
04:30	64.5	64.5	64.5	57	48.9	1	4	90	0.00	29.898 
04:35	64.5	64.5	64.5	56	48.4	1	3	90	0.00	29.898 
04:40	64.3	64.3	64.3	57	48.7	1	3	68	0.00	29.898 
04:45	64.3	64.3	64.3	57	48.7	1	4	68	0.00	29.900 
04:50	64.2	64.2	64.2	57	48.6	1	3	68	0.00	29.900 
04:55	64.0	64.0	64.0	57	48.5	1	3	68	0.00	29.900 
05:00	64.0	64.0	64.0	58	48.9	1	4	68	0.00	29.901 
05:05	63.9	63.9	63.9	58	48.8	1	3	68	0.00	29.901 
05:10	63.7	63.7	63.7	58	48.6	1	3	68	0.00	29.901 
05:15	63.7	63.7	63.7	59	49.1	1	3	68	0.00	29.900 
05:20	63.5	63.5	63.5	60	49.4	1	3	68	0.00	29.900 
05:25	63.4	63.4	63.4	60	49.3	2	5	45	0.00	29.900 
05:30	63.4	63.4	63.4	60	49.3	1	4	90	0.00	29.905 
05:35	63.2	63.2	63.2	60	49.1	1	4	90	0.00	29.905 
05:40	63.2	63.2	63.2	60	49.1	1	4	68	0.00	29.905 
05:45	63.2	63.2	63.2	60	49.1	1	3	68	0.00	29.906 
05:50	63.2	63.2	63.2	61	49.5	2	3	68	0.00	29.906 
05:55	63.1	63.1	63.1	61	49.4	2	4	68	0.00	29.906 
06:00	63.1	63.1	63.1	62	49.9	1	4	68	0.00	29.904 
06:05	63.1	63.1	63.1	62	49.9	2	5	90	0.00	29.904 
06:10	63.1	63.1	63.1	63	50.3	2	4	68	0.00	29.904 
06:15	63.1	63.1	63.1	63	50.3	1	4	90	0.00	29.905 
06:20	62.9	62.9	62.9	63	50.1	1	3	90	0.00	29.905 
06:25	62.9	62.9	62.9	64	50.5	1	3	45	0.00	29.905 
06:30	62.9	62.9	62.9	65	50.9	1	4	112	0.00	29.906 
06:35	62.9	62.9	62.9	65	50.9	2	6	68	0.00	29.906 
06:40	62.7	62.7	62.7	65	50.8	1	3	68	0.00	29.906 
06:45	62.7	62.7	62.7	65	50.8	2	5	45	0.00	29.916 
06:50	62.9	62.9	62.9	65	50.9	1	4	45	0.00	29.916 
06:55	62.9	62.9	62.9	65	50.9	1	4	68	0.00	29.916 
07:00	63.1	63.1	63.1	65	51.1	2	5	90	0.00	29.918 
07:05	63.2	63.2	63.2	66	51.6	1	7	90	0.00	29.918 
07:10	63.2	63.2	63.2	66	51.6	1	3	112	0.00	29.918 
07:15	63.5	63.5	63.5	65	51.5	2	5	68	0.00	29.916 
07:20	63.7	63.7	63.7	66	52.1	1	6	90	0.00	29.916 
07:25	63.7	63.7	63.7	65	51.7	2	4	90	0.00	29.916 
07:30	63.7	63.7	63.7	66	52.1	1	4	68	0.00	29.918 
07:35	63.7	63.7	63.7	65	51.7	2	5	68	0.00	29.918 
07:40	63.5	63.5	63.5	66	51.9	1	5	68	0.00	29.918 
07:45	63.7	63.7	63.7	65	51.7	2	8	68	0.00	29.915 
07:50	63.7	63.7	63.7	66	52.1	1	4	68	0.00	29.915 
07:55	63.9	63.9	63.9	65	51.9	2	6	68	0.00	29.915 
08:00	63.9	63.9	63.9	66	52.3	1	5	90	0.00	29.920 
08:05	63.9	63.9	63.9	66	52.3	1	5	90	0.00	29.920 
08:10	64.0	64.0	64.0	65	52.0	1	3	90	0.00	29.920 
08:15	64.2	64.2	64.2	65	52.2	1	4	68	0.00	29.929 
08:20	64.3	64.3	64.3	65	52.3	2	5	68	0.00	29.929 
08:25	64.3	64.3	64.3	65	52.3	1	4	68	0.00	29.929 
08:30	64.3	64.3	64.3	65	52.3	1	3	68	0.00	29.925 
08:35	64.5	64.5	64.5	64	52.0	2	4	68	0.00	29.925 
08:40	64.7	64.7	64.7	64	52.2	2	7	90	0.00	29.925 
08:45	64.8	64.8	64.8	65	52.8	1	4	68	0.00	29.926 
08:50	64.8	64.8	64.8	63	51.9	2	6	68	0.00	29.926 
08:55	64.8	64.8	64.8	63	51.9	2	5	112	0.00	29.926 
09:00	65.0	65.0	65.0	63	52.1	1	4	112	0.00	29.931 
09:05	65.2	65.2	65.2	62	51.8	1	3	112	0.00	29.931 
09:10	65.2	65.2	65.2	62	51.8	2	5	90	0.00	29.931 
09:15	65.5	65.5	65.5	61	51.7	1	4	90	0.00	29.941 
09:20	65.6	65.6	65.6	59	50.9	1	4	90	0.00	29.941 
09:25	65.8	65.8	65.8	59	51.1	1	3	90	0.00	29.941 
09:30	66.1	66.1	66.1	59	51.3	2	5	90	0.00	29.940 
09:35	66.4	66.4	66.4	59	51.6	1	3	68	0.00	29.940 
09:40	66.8	66.8	66.8	58	51.5	1	3	270	0.00	29.940 
09:45	66.9	66.9	66.9	57	51.2	1	3	180	0.00	29.942 
09:50	67.1	67.1	67.1	58	51.8	1	5	45	0.00	29.942 
09:55	66.9	66.9	66.9	57	51.2	1	4	68	0.00	29.942 
10:00	66.9	66.9	66.9	57	51.2	1	5	68	0.00	29.948 
10:05	66.9	66.9	66.9	56	50.7	1	6	68	0.00	29.948 
10:10	66.9	66.9	66.9	57	51.2	1	4	68	0.00	29.948 
10:15	66.9	66.9	66.9	57	51.2	2	5	68	0.00	29.943 
10:20	66.9	66.9	66.9	56	50.7	2	4	90	0.00	29.943 
10:25	67.1	67.1	67.1	56	50.9	2	6	90	0.00	29.943 
10:30	67.4	67.4	67.4	56	51.1	1	4	112	0.00	29.940 
10:35	67.8	67.8	67.8	58	52.5	1	4	68	0.00	29.940 
10:40	67.9	67.9	67.9	57	52.1	1	4	68	0.00	29.940 
10:45	67.9	67.9	67.9	56	51.6	2	5	68	0.00	29.934 
10:50	67.9	67.9	67.9	56	51.6	2	5	68	0.00	29.934 
10:55	67.8	67.8	67.8	56	51.5	2	5	68	0.00	29.934 
11:00	67.8	67.8	67.8	56	51.5	2	5	90	0.00	29.935 
11:05	67.9	67.9	67.9	56	51.6	2	4	90	0.00	29.935 
11:10	67.9	67.9	67.9	56	51.6	1	3	68	0.00	29.935 
11:15	68.1	68.1	68.1	57	52.3	1	4	68	0.00	29.936 
11:20	68.3	68.3	68.3	56	52.0	1	4	68	0.00	29.936 
11:25	68.3	68.3	68.3	55	51.5	1	3	45	0.00	29.936 
11:30	68.6	68.6	68.6	56	52.3	0	3	68	0.00	29.936 
11:35	68.8	68.8	68.8	56	52.5	1	5	68	0.00	29.936 
11:40	68.9	68.9	68.9	54	51.6	1	4	68	0.00	29.936 
11:45	69.1	69.1	69.1	53	51.2	1	4	90	0.00	29.928 
11:50	69.4	69.4	69.4	54	52.0	1	4	112	0.00	29.928 
11:55	69.8	69.8	69.8	54	52.4	1	5	112	0.00	29.928 
12:00	70.1	70.1	70.1	52	51.6	1	5	90	0.00	29.922 
12:05	70.3	70.3	70.3	51	51.3	3	9	90	0.00	29.922 
12:10	70.3	70.3	70.3	52	51.8	2	5	90	0.00	29.922 
12:15	70.4	70.4	70.4	51	51.4	1	8	90	0.00	29.923 
12:20	70.6	70.6	70.6	51	51.6	2	5	45	0.00	29.923 
12:25	70.8	70.8	70.8	51	51.8	2	5	68	0.00	29.923 
12:30	70.9	70.9	70.9	52	52.4	1	4	68	0.00	29.918 
12:35	71.1	71.1	71.1	51	52.0	2	4	90	0.00	29.918 
12:40	71.3	71.3	71.3	53	53.3	1	3	90	0.00	29.918 
12:45	71.8	71.8	71.8	50	52.1	1	5	90	0.00	29.920 
12:50	72.1	72.1	72.1	50	52.4	1	4	68	0.00	29.920 
12:55	72.3	72.3	72.3	51	53.1	0	2	68	0.00	29.920 
13:00	72.5	72.5	72.5	50	52.8	1	4	68	0.00	29.914 
13:05	72.1	72.1	72.1	50	52.4	2	3	68	0.00	29.914 
13:10	72.0	72.0	72.0	51	52.9	1	4	112	0.00	29.914 
13:15	71.8	71.8	71.8	52	53.2	1	3	112	0.00	29.912 
13:20	71.8	71.8	71.8	51	52.7	1	4	112	0.00	29.912 
13:25	71.8	71.8	71.8	52	53.2	1	3	112	0.00	29.912 
13:30	71.8	71.8	71.8	50	52.1	2	6	68	0.00	29.909 
13:35	71.8	71.8	71.8	50	52.1	1	3	112	0.00	29.909 
13:40	72.1	72.1	72.1	51	53.0	1	3	68	0.00	29.909 
13:45	72.7	72.7	72.7	50	53.0	1	3	68	0.00	29.912 
13:50	73.0	73.0	73.0	49	52.7	1	4	68	0.00	29.912 
13:55	73.2	73.2	73.2	50	53.4	0	2	68	0.00	29.912 
14:00	73.5	73.5	73.5	50	53.7	0	2	68	0.00	29.911 
14:05	73.7	73.7	73.7	49	53.3	0	3	68	0.00	29.911 
14:10	74.0	74.0	74.0	48	53.0	0	2	68	0.00	29.911 
14:15	74.2	74.2	74.2	49	53.8	0	2	68	0.00	29.916 
14:20	74.4	74.4	74.4	49	54.0	0	3	90	0.00	29.916 
14:25	74.6	74.6	74.6	48	53.6	0	4	90	0.00	29.916 
14:30	74.7	74.7	74.7	48	53.7	0	2	90	0.00	29.917 
14:35	74.9	74.9	74.9	47	53.3	1	3	90	0.00	29.917 
14:40	75.1	75.1	77.7	48	54.1	1	3	90	0.00	29.917 
14:45	75.4	75.4	77.8	49	54.9	0	2	90	0.00	29.909 
14:50	75.8	75.8	77.9	47	54.1	1	3	68	0.00	29.909 
14:55	75.8	75.8	78.0	49	55.3	1	3	112	0.00	29.909 
15:00	75.6	75.6	77.9	50	55.6	1	3	112	0.00	29.906 
15:05	75.6	75.6	77.9	51	56.2	0	1	112	0.00	29.906 
15:10	75.6	75.6	77.9	51	56.2	0	2	112	0.00	29.906 
15:15	75.4	75.4	77.8	52	56.5	1	2	112	0.00	29.898 
15:20	75.3	75.3	77.7	54	57.5	1	4	112	0.00	29.898 
15:25	74.6	74.6	74.6	57	58.3	1	4	112	0.00	29.898 
15:30	74.0	74.0	74.0	58	58.3	0	3	112	0.00	29.892 
15:35	73.9	73.9	73.9	57	57.7	1	4	112	0.00	29.892 
15:40	73.7	73.7	73.7	58	58.0	0	1	112	0.00	29.892 
15:45	73.7	73.7	73.7	58	58.0	0	2	112	0.00	29.890 
15:50	73.9	73.9	73.9	57	57.7	0	3	112	0.00	29.890 
15:55	73.9	73.9	73.9	57	57.7	1	4	112	0.00	29.890 
16:00	73.7	73.7	73.7	57	57.5	1	6	112	0.00	29.892 
16:05	73.7	73.7	73.7	58	58.0	1	2	112	0.00	29.892 
16:10	73.5	73.5	73.5	59	58.3	1	2	112	0.00	29.892 
16:15	73.7	73.7	73.7	60	58.9	0	3	112	0.00	29.880 
16:20	73.7	73.7	73.7	61	59.4	0	2	112	0.00	29.880 
16:25	73.7	73.7	73.7	62	59.9	0	2	112	0.00	29.880 
16:30	73.9	73.9	73.9	64	60.9	1	3	112	0.00	29.874 
16:35	73.9	73.9	73.9	65	61.4	1	3	90	0.00	29.874 
16:40	74.2	74.2	74.2	67	62.5	1	4	90	0.00	29.874 
16:45	74.7	74.7	74.7	65	62.1	1	3	90	0.00	29.863 
16:50	75.3	75.3	77.3	65	62.7	1	3	135	0.00	29.863 
16:55	75.8	75.8	77.7	65	63.2	0	2	135	0.00	29.863 
17:00	76.3	76.3	78.2	63	62.8	1	4	135	0.00	29.854 
17:05	76.7	76.7	78.5	63	63.1	1	4	68	0.00	29.854 
17:10	77.0	77.0	78.8	63	63.4	1	4	90	0.00	29.854 
17:15	77.2	77.2	79.0	62	63.2	1	3	90	0.00	29.855 
17:20	77.4	77.4	79.2	62	63.3	0	3	68	0.00	29.855 
17:25	77.7	77.7	79.4	62	63.6	0	1	68	0.00	29.855 
17:30	77.7	77.7	79.4	61	63.2	0	2	68	0.00	29.859 
17:35	77.7	77.7	79.4	61	63.2	0	2	90	0.00	29.859 
17:40	77.9	77.9	79.6	60	62.9	1	3	90	0.00	29.859 
17:45	77.9	77.9	79.5	58	61.9	0	2	90	0.00	29.860 
17:50	77.7	77.7	79.3	58	61.7	0	2	90	0.00	29.860 
17:55	77.6	77.6	79.3	59	62.1	0	3	90	0.00	29.860 
18:00	77.6	77.6	79.3	59	62.1	1	2	90	0.00	29.859 
18:05	77.4	77.4	79.1	58	61.4	1	4	90	0.00	29.859 
18:10	77.4	77.4	79.1	58	61.4	0	2	90	0.00	29.859 
18:15	77.4	77.4	79.1	57	61.0	0	2	112	0.00	29.859 
18:20	77.4	77.4	79.1	59	61.9	0	2	112	0.00	29.859 
18:25	77.4	77.4	79.1	57	61.0	1	3	112	0.00	29.859 
18:30	77.4	77.4	79.1	57	61.0	0	3	112	0.00	29.856 
18:35	77.6	77.6	79.2	56	60.6	0	3	112	0.00	29.856 
18:40	77.7	77.7	79.3	58	61.7	0	2	112	0.00	29.856 
18:45	77.7	77.7	79.3	58	61.7	0	2	112	0.00	29.847 
18:50	77.7	77.7	79.3	58	61.7	1	3	112	0.00	29.847 
18:55	77.6	77.6	79.2	58	61.6	0	3	112	0.00	29.847 
19:00	77.4	77.4	79.0	56	60.5	1	4	90	0.00	29.847 
19:05	77.4	77.4	79.1	57	61.0	1	4	90	0.00	29.847 
19:10	77.0	77.0	78.7	56	60.1	1	5	90	0.00	29.847 
19:15	76.8	76.8	78.6	57	60.4	0	1	90	0.00	29.845 
19:20	76.8	76.8	78.6	57	60.4	0	3	90	0.00	29.845 
19:25	76.8	76.8	78.6	57	60.4	0	2	90	0.00	29.845 
19:30	76.8	76.8	78.6	57	60.4	0	2	90	0.00	29.853 
19:35	76.8	76.8	78.6	57	60.4	0	2	90	0.00	29.853 
19:40	76.8	76.8	78.6	56	59.9	0	2	45	0.00	29.853 
19:45	76.8	76.8	78.6	56	59.9	1	3	180	0.00	29.857 
19:50	76.5	76.5	78.4	57	60.1	1	4	90	0.00	29.857 
19:55	76.3	76.3	78.2	58	60.4	0	3	90	0.00	29.857 
20:00	76.1	76.1	78.1	58	60.2	0	3	90	0.00	29.856 
20:05	76.0	76.0	78.0	59	60.6	0	2	90	0.00	29.856 
20:10	75.6	75.6	77.8	58	59.8	1	3	202	0.00	29.856 
20:15	75.4	75.4	77.6	60	60.5	0	3	135	0.00	29.854 
20:20	75.1	75.1	77.4	60	60.2	0	3	135	0.00	29.854 
20:25	74.9	74.9	74.9	61	60.5	1	3	135	0.00	29.854 
20:30	74.7	74.7	74.7	62	60.8	0	2	135	0.00	29.858 
20:35	74.6	74.6	74.6	62	60.7	0	2	135	0.00	29.858 
20:40	74.4	74.4	74.4	63	61.0	0	2	135	0.00	29.858 
20:45	74.2	74.2	74.2	63	60.8	0	2	112	0.00	29.849 
20:50	73.9	73.9	73.9	63	60.5	0	2	112	0.00	29.849 
20:55	73.7	73.7	73.7	63	60.3	0	2	112	0.00	29.849 
21:00	73.5	73.5	73.5	64	60.6	1	4	68	0.00	29.851 
21:05	73.3	73.3	73.3	64	60.4	1	3	68	0.00	29.851 
21:10	73.0	73.0	73.0	65	60.5	0	2	68	0.00	29.851 
21:15	72.8	72.8	72.8	65	60.3	1	3	68	0.00	29.845 
21:20	72.7	72.7	72.7	65	60.2	0	1	68	0.00	29.845 
21:25	72.7	72.7	72.7	65	60.2	0	2	68	0.00	29.845 
21:30	72.5	72.5	72.5	65	60.0	0	1	68	0.00	29.845 
21:35	72.3	72.3	72.3	65	59.9	1	3	68	0.00	29.845 
21:40	72.1	72.1	72.1	66	60.1	0	3	68	0.00	29.845 
21:45	72.0	72.0	72.0	66	60.0	0	2	68	0.00	29.846 
21:50	71.8	71.8	71.8	66	59.8	0	3	68	0.00	29.846 
21:55	71.6	71.6	71.6	66	59.6	0	1	68	0.00	29.846 
22:00	71.5	71.5	71.5	67	60.0	0	1	68	0.00	29.846 
22:05	71.3	71.3	71.3	67	59.8	0	1	68	0.00	29.846 
22:10	71.1	71.1	71.1	67	59.6	0	2	68	0.00	29.846 
22:15	70.9	70.9	70.9	67	59.4	0	2	68	0.00	29.847 
22:20	70.8	70.8	70.8	68	59.7	0	3	68	0.00	29.847 
22:25	70.8	70.8	70.8	68	59.7	0	2	68	0.00	29.847 
22:30	70.6	70.6	70.6	69	59.9	0	1	68	0.00	29.848 
22:35	70.4	70.4	70.4	69	59.7	0	1	68	0.00	29.848 
22:40	70.4	70.4	70.4	69	59.7	0	1	68	0.00	29.848 
22:45	70.3	70.3	70.3	70	60.0	0	1	68	0.00	29.849 
22:50	70.3	70.3	70.3	70	60.0	0	1	68	0.00	29.849 
22:55	70.1	70.1	70.1	70	59.8	0	2	68	0.00	29.849 
23:00	70.1	70.1	70.1	71	60.2	0	2	68	0.00	29.843 
23:05	70.1	70.1	70.1	71	60.2	0	1	68	0.00	29.843 
23:10	70.1	70.1	70.1	71	60.2	0	1	68	0.00	29.843 
23:15	70.1	70.1	70.1	71	60.2	0	1	68	0.00	29.840 
23:20	70.1	70.1	70.1	70	59.8	0	3	68	0.00	29.840 
23:25	70.1	70.1	70.1	70	59.8	0	2	68	0.00	29.840 
23:30	70.1	70.1	70.1	70	59.8	0	1	68	0.00	29.842 
23:35	70.1	70.1	70.1	70	59.8	0	2	68	0.00	29.842 
23:40	70.1	70.1	70.1	70	59.8	0	3	68	0.00	29.842 
23:45	70.1	70.1	70.1	70	59.8	0	3	68	0.00	29.830 
23:50	69.9	69.9	69.9	70	59.7	0	1	68	0.00	29.830 
23:55	69.9	69.9	69.9	70	59.7	0	1	68	0.00	29.830 

CoCoRaHS
IN-AL-39
A2 Web Hosting
Creative Commons License
GoDaddy
search engine by freefind advanced

loaded 2018-11-17 15:05:49 • last modified 2010-11-18 10:43:29
Privacy PolicyDisclaimer
• wx.awcolley.com is powered by PmWiki v.2002016 •
• all content (unless otherwise noted) © 2018 A W Colley